PWSweather.com
Personal Weather Stations
Station Observations
265NC
Va2kh, Becancour, QC G9H 2M1

Va2khBecancour, QC G9H 2M1

Lat: 46.32855, Lon: -72.52436

Elevation: 5

Station Type: National Geographic 265NC

http://www.qsl.net/va2kh

High Low Average
Temperature 64.8°F18.2°F 43.7°F6.5°F 54.0°F12.2°F
Dew Point 48.5°F9.2°F 40.1°F4.5°F 43.9°F6.6°F
Winds 10.7 mph ESE17.2 mph ESE 1.6 mph 2.6 mph 5.7 mph 9.2 mph
Wind Gusts 19.0 mph30.6 mph 6.0 mph9.7 mph 11.6 mph18.7 mph
Humidity 99% 42% 72%
Pressure 29.89 in1012.20 in 29.78 in1008.50 in -
Precipitation 0.00 in0.00 in - -
Hour Temp Dew Point Humidity Winds Wind Gusts Pressure Precip Precip Rate Daily Precip Total
12:00 AM 48.4°F9.1°C 42.5°F5.8°C 80% 6.0 mph SE9.7 kmh SE 11.4 mph18.3 kmh 29.86 in1011.2 mb 0.00 in0.0 mm 0.00 in0.0 mm 0.00 in0.0 mm
12:15 AM 48.2°F9.0°C 43.0°F6.1°C 82% 6.9 mph ESE11.1 kmh ESE 10.7 mph17.2 kmh 29.85 in1010.8 mb 0.00 in0.0 mm 0.00 in0.0 mm 0.00 in0.0 mm
12:30 AM 48.0°F8.9°C 44.3°F6.8°C 87% 6.0 mph E9.7 kmh E 9.2 mph14.8 kmh 29.85 in1010.8 mb 0.00 in0.0 mm 0.00 in0.0 mm 0.00 in0.0 mm
12:45 AM 47.8°F8.8°C 44.8°F7.1°C 89% 6.0 mph ESE9.7 kmh ESE 11.4 mph18.3 kmh 29.84 in1010.5 mb 0.00 in0.0 mm 0.00 in0.0 mm 0.00 in0.0 mm
01:00 AM 47.3°F8.5°C 44.2°F6.8°C 89% 6.9 mph ESE11.1 kmh ESE 12.1 mph19.5 kmh 29.84 in1010.5 mb 0.00 in0.0 mm 0.00 in0.0 mm 0.00 in0.0 mm
01:15 AM 47.1°F8.4°C 44.3°F6.8°C 90% 6.0 mph E9.7 kmh E 10.7 mph17.2 kmh 29.85 in1010.8 mb 0.00 in0.0 mm 0.00 in0.0 mm 0.00 in0.0 mm
01:30 AM 46.6°F8.1°C 43.8°F6.6°C 90% 6.9 mph SE11.1 kmh SE 11.4 mph18.3 kmh 29.85 in1010.8 mb 0.00 in0.0 mm 0.00 in0.0 mm 0.00 in0.0 mm
01:45 AM 46.2°F7.9°C 43.5°F6.4°C 90% 5.4 mph SE8.7 kmh SE 11.4 mph18.3 kmh 29.85 in1010.8 mb 0.00 in0.0 mm 0.00 in0.0 mm 0.00 in0.0 mm
02:00 AM 45.7°F7.6°C 43.2°F6.2°C 91% 4.5 mph SE7.2 kmh SE 8.3 mph13.4 kmh 29.85 in1010.8 mb 0.00 in0.0 mm 0.00 in0.0 mm 0.00 in0.0 mm
02:15 AM 45.3°F7.4°C 43.4°F6.3°C 93% 5.4 mph ESE8.7 kmh ESE 8.3 mph13.4 kmh 29.85 in1010.8 mb 0.00 in0.0 mm 0.00 in0.0 mm 0.00 in0.0 mm
02:30 AM 45.3°F7.4°C 43.1°F6.2°C 92% 5.4 mph ESE8.7 kmh ESE 9.8 mph15.8 kmh 29.85 in1010.8 mb 0.00 in0.0 mm 0.00 in0.0 mm 0.00 in0.0 mm
02:45 AM 45.3°F7.4°C 43.4°F6.3°C 93% 6.0 mph ESE9.7 kmh ESE 12.1 mph19.5 kmh 29.85 in1010.8 mb 0.00 in0.0 mm 0.00 in0.0 mm 0.00 in0.0 mm
03:00 AM 45.0°F7.2°C 43.1°F6.2°C 93% 5.4 mph ESE8.7 kmh ESE 9.2 mph14.8 kmh 29.85 in1010.8 mb 0.00 in0.0 mm 0.00 in0.0 mm 0.00 in0.0 mm
03:15 AM 44.8°F7.1°C 43.4°F6.3°C 95% 2.2 mph E3.5 kmh E 6.9 mph11.1 kmh 29.85 in1010.8 mb 0.00 in0.0 mm 0.00 in0.0 mm 0.00 in0.0 mm
03:30 AM 45.0°F7.2°C 44.4°F6.9°C 98% 3.1 mph E5.0 kmh E 7.6 mph12.2 kmh 29.85 in1010.8 mb 0.00 in0.0 mm 0.00 in0.0 mm 0.00 in0.0 mm
03:45 AM 44.8°F7.1°C 44.3°F6.8°C 98% 2.2 mph E3.5 kmh E 6.9 mph11.1 kmh 29.85 in1010.8 mb 0.00 in0.0 mm 0.00 in0.0 mm 0.00 in0.0 mm
04:00 AM 44.6°F7.0°C 44.1°F6.7°C 98% 2.2 mph E3.5 kmh E 9.2 mph14.8 kmh 29.85 in1010.8 mb 0.00 in0.0 mm 0.00 in0.0 mm 0.00 in0.0 mm
04:15 AM 44.4°F6.9°C 43.6°F6.4°C 97% 6.0 mph E9.7 kmh E 13.0 mph20.9 kmh 29.84 in1010.5 mb 0.00 in0.0 mm 0.00 in0.0 mm 0.00 in0.0 mm
04:30 AM 44.6°F7.0°C 44.3°F6.8°C 99% 3.8 mph E6.1 kmh E 10.7 mph17.2 kmh 29.85 in1010.8 mb 0.00 in0.0 mm 0.00 in0.0 mm 0.00 in0.0 mm
04:45 AM 44.8°F7.1°C 44.5°F6.9°C 99% 3.8 mph E6.1 kmh E 6.0 mph9.7 kmh 29.85 in1010.8 mb 0.00 in0.0 mm 0.00 in0.0 mm 0.00 in0.0 mm
05:00 AM 44.2°F6.8°C 43.7°F6.5°C 98% 3.1 mph E5.0 kmh E 9.2 mph14.8 kmh 29.85 in1010.8 mb 0.00 in0.0 mm 0.00 in0.0 mm 0.00 in0.0 mm
05:15 AM 43.9°F6.6°C 43.4°F6.3°C 98% 3.8 mph E6.1 kmh E 9.8 mph15.8 kmh 29.84 in1010.5 mb 0.00 in0.0 mm 0.00 in0.0 mm 0.00 in0.0 mm
05:30 AM 43.7°F6.5°C 43.4°F6.3°C 99% 4.5 mph E7.2 kmh E 10.7 mph17.2 kmh 29.85 in1010.8 mb 0.00 in0.0 mm 0.00 in0.0 mm 0.00 in0.0 mm
05:45 AM 43.9°F6.6°C 43.6°F6.4°C 99% 3.8 mph ESE6.1 kmh ESE 9.2 mph14.8 kmh 29.85 in1010.8 mb 0.00 in0.0 mm 0.00 in0.0 mm 0.00 in0.0 mm
06:00 AM 44.1°F6.7°C 43.8°F6.6°C 99% 3.8 mph ESE6.1 kmh ESE 9.2 mph14.8 kmh 29.86 in1011.2 mb 0.00 in0.0 mm 0.00 in0.0 mm 0.00 in0.0 mm
06:15 AM 44.2°F6.8°C 44.0°F6.7°C 99% 2.2 mph E3.5 kmh E 7.6 mph12.2 kmh 29.86 in1011.2 mb 0.00 in0.0 mm 0.00 in0.0 mm 0.00 in0.0 mm
06:30 AM 44.6°F7.0°C 44.3°F6.8°C 99% 4.5 mph E7.2 kmh E 8.3 mph13.4 kmh 29.86 in1011.2 mb 0.00 in0.0 mm 0.00 in0.0 mm 0.00 in0.0 mm
06:45 AM 45.0°F7.2°C 44.7°F7.1°C 99% 6.0 mph E9.7 kmh E 9.8 mph15.8 kmh 29.86 in1011.2 mb 0.00 in0.0 mm 0.00 in0.0 mm 0.00 in0.0 mm
07:00 AM 47.7°F8.7°C 46.9°F8.3°C 97% 3.8 mph E6.1 kmh E 7.6 mph12.2 kmh 29.86 in1011.2 mb 0.00 in0.0 mm 0.00 in0.0 mm 0.00 in0.0 mm
07:15 AM 48.9°F9.4°C 46.1°F7.8°C 90% 6.0 mph E9.7 kmh E 11.4 mph18.3 kmh 29.87 in1011.5 mb 0.00 in0.0 mm 0.00 in0.0 mm 0.00 in0.0 mm
07:45 AM 50.0°F10.0°C 45.7°F7.6°C 85% 9.8 mph ESE15.8 kmh ESE 15.2 mph24.5 kmh 29.88 in1011.9 mb 0.00 in0.0 mm 0.00 in0.0 mm 0.00 in0.0 mm
08:00 AM 50.7°F10.4°C 46.4°F8.0°C 85% 10.7 mph ESE17.2 kmh ESE 14.5 mph23.3 kmh 29.87 in1011.5 mb 0.00 in0.0 mm 0.00 in0.0 mm 0.00 in0.0 mm
08:15 AM 50.5°F10.3°C 46.2°F7.9°C 85% 7.6 mph E12.2 kmh E 15.2 mph24.5 kmh 29.87 in1011.5 mb 0.00 in0.0 mm 0.00 in0.0 mm 0.00 in0.0 mm
08:30 AM 51.4°F10.8°C 46.1°F7.8°C 82% 9.8 mph E15.8 kmh E 14.5 mph23.3 kmh 29.87 in1011.5 mb 0.00 in0.0 mm 0.00 in0.0 mm 0.00 in0.0 mm
08:45 AM 51.8°F11.0°C 45.8°F7.7°C 80% 9.8 mph E15.8 kmh E 15.9 mph25.6 kmh 29.88 in1011.9 mb 0.00 in0.0 mm 0.00 in0.0 mm 0.00 in0.0 mm
09:00 AM 52.7°F11.5°C 45.7°F7.6°C 77% 10.7 mph ESE17.2 kmh ESE 16.8 mph27.0 kmh 29.87 in1011.5 mb 0.00 in0.0 mm 0.00 in0.0 mm 0.00 in0.0 mm
09:15 AM 53.1°F11.7°C 46.0°F7.8°C 77% 9.8 mph ESE15.8 kmh ESE 15.9 mph25.6 kmh 29.87 in1011.5 mb 0.00 in0.0 mm 0.00 in0.0 mm 0.00 in0.0 mm
09:30 AM 53.4°F11.9°C 46.4°F8.0°C 77% 7.6 mph ESE12.2 kmh ESE 15.2 mph24.5 kmh 29.88 in1011.9 mb 0.00 in0.0 mm 0.00 in0.0 mm 0.00 in0.0 mm
09:45 AM 54.3°F12.4°C 46.9°F8.3°C 76% 5.4 mph E8.7 kmh E 14.5 mph23.3 kmh 29.88 in1011.9 mb 0.00 in0.0 mm 0.00 in0.0 mm 0.00 in0.0 mm
10:00 AM 54.7°F12.6°C 47.3°F8.5°C 76% 6.0 mph ESE9.7 kmh ESE 12.1 mph19.5 kmh 29.89 in1012.2 mb 0.00 in0.0 mm 0.00 in0.0 mm 0.00 in0.0 mm
10:15 AM 54.3°F12.4°C 46.9°F8.3°C 76% 6.9 mph E11.1 kmh E 11.4 mph18.3 kmh 29.89 in1012.2 mb 0.00 in0.0 mm 0.00 in0.0 mm 0.00 in0.0 mm
10:30 AM 55.9°F13.3°C 48.5°F9.2°C 76% 3.1 mph E5.0 kmh E 11.4 mph18.3 kmh 29.89 in1012.2 mb 0.00 in0.0 mm 0.00 in0.0 mm 0.00 in0.0 mm
10:45 AM 57.4°F14.1°C 48.4°F9.1°C 72% 4.5 mph E7.2 kmh E 10.7 mph17.2 kmh 29.89 in1012.2 mb 0.00 in0.0 mm 0.00 in0.0 mm 0.00 in0.0 mm
11:00 AM 57.2°F14.0°C 47.5°F8.6°C 70% 4.5 mph E7.2 kmh E 18.3 mph29.5 kmh 29.88 in1011.9 mb 0.00 in0.0 mm 0.00 in0.0 mm 0.00 in0.0 mm
11:15 AM 57.7°F14.3°C 47.3°F8.5°C 68% 4.5 mph E7.2 kmh E 13.6 mph21.9 kmh 29.88 in1011.9 mb 0.00 in0.0 mm 0.00 in0.0 mm 0.00 in0.0 mm
11:30 AM 57.7°F14.3°C 47.3°F8.5°C 68% 5.4 mph E8.7 kmh E 13.6 mph21.9 kmh 29.88 in1011.9 mb 0.00 in0.0 mm 0.00 in0.0 mm 0.00 in0.0 mm
11:45 AM 57.9°F14.4°C 47.4°F8.6°C 68% 5.4 mph E8.7 kmh E 9.2 mph14.8 kmh 29.88 in1011.9 mb 0.00 in0.0 mm 0.00 in0.0 mm 0.00 in0.0 mm
12:00 PM 58.1°F14.5°C 47.2°F8.4°C 67% 3.8 mph E6.1 kmh E 8.3 mph13.4 kmh 29.87 in1011.5 mb 0.00 in0.0 mm 0.00 in0.0 mm 0.00 in0.0 mm
12:15 PM 58.5°F14.7°C 47.6°F8.7°C 67% 3.8 mph E6.1 kmh E 9.8 mph15.8 kmh 29.87 in1011.5 mb 0.00 in0.0 mm 0.00 in0.0 mm 0.00 in0.0 mm
12:30 PM 59.2°F15.1°C 47.4°F8.6°C 65% 3.8 mph E6.1 kmh E 10.7 mph17.2 kmh 29.86 in1011.2 mb 0.00 in0.0 mm 0.00 in0.0 mm 0.00 in0.0 mm
12:45 PM 59.7°F15.4°C 46.3°F7.9°C 61% 5.4 mph E8.7 kmh E 14.5 mph23.3 kmh 29.86 in1011.2 mb 0.00 in0.0 mm 0.00 in0.0 mm 0.00 in0.0 mm
01:00 PM 60.1°F15.6°C 45.7°F7.6°C 59% 5.4 mph E8.7 kmh E 11.4 mph18.3 kmh 29.85 in1010.8 mb 0.00 in0.0 mm 0.00 in0.0 mm 0.00 in0.0 mm
01:15 PM 60.4°F15.8°C 45.6°F7.6°C 58% 5.4 mph E8.7 kmh E 10.7 mph17.2 kmh 29.85 in1010.8 mb 0.00 in0.0 mm 0.00 in0.0 mm 0.00 in0.0 mm
01:30 PM 60.6°F15.9°C 45.8°F7.7°C 58% 5.4 mph E8.7 kmh E 12.1 mph19.5 kmh 29.84 in1010.5 mb 0.00 in0.0 mm 0.00 in0.0 mm 0.00 in0.0 mm
01:45 PM 61.2°F16.2°C 44.4°F6.9°C 54% 3.8 mph ESE6.1 kmh ESE 13.0 mph20.9 kmh 29.84 in1010.5 mb 0.00 in0.0 mm 0.00 in0.0 mm 0.00 in0.0 mm
02:00 PM 61.5°F16.4°C 42.7°F5.9°C 50% 7.6 mph E12.2 kmh E 13.0 mph20.9 kmh 29.84 in1010.5 mb 0.00 in0.0 mm 0.00 in0.0 mm 0.00 in0.0 mm
02:30 PM 60.4°F15.8°C 42.2°F5.7°C 51% 6.0 mph E9.7 kmh E 10.7 mph17.2 kmh 29.83 in1010.2 mb 0.00 in0.0 mm 0.00 in0.0 mm 0.00 in0.0 mm
02:45 PM 61.3°F16.3°C 41.5°F5.3°C 48% 8.3 mph E13.4 kmh E 14.5 mph23.3 kmh 29.83 in1010.2 mb 0.00 in0.0 mm 0.00 in0.0 mm 0.00 in0.0 mm
03:00 PM 62.4°F16.9°C 42.5°F5.8°C 48% 6.9 mph E11.1 kmh E 12.1 mph19.5 kmh 29.83 in1010.2 mb 0.00 in0.0 mm 0.00 in0.0 mm 0.00 in0.0 mm
03:15 PM 63.0°F17.2°C 41.9°F5.5°C 46% 5.4 mph E8.7 kmh E 19.0 mph30.6 kmh 29.82 in1009.8 mb 0.00 in0.0 mm 0.00 in0.0 mm 0.00 in0.0 mm
03:30 PM 63.0°F17.2°C 43.0°F6.1°C 48% 4.5 mph ESE7.2 kmh ESE 11.4 mph18.3 kmh 29.81 in1009.5 mb 0.00 in0.0 mm 0.00 in0.0 mm 0.00 in0.0 mm
03:45 PM 62.8°F17.1°C 40.6°F4.8°C 44% 5.4 mph E8.7 kmh E 18.3 mph29.5 kmh 29.81 in1009.5 mb 0.00 in0.0 mm 0.00 in0.0 mm 0.00 in0.0 mm
04:00 PM 63.3°F17.4°C 40.5°F4.7°C 43% 8.3 mph ESE13.4 kmh ESE 13.0 mph20.9 kmh 29.81 in1009.5 mb 0.00 in0.0 mm 0.00 in0.0 mm 0.00 in0.0 mm
04:15 PM 63.9°F17.7°C 41.5°F5.3°C 44% 4.5 mph ESE7.2 kmh ESE 16.8 mph27.0 kmh 29.81 in1009.5 mb 0.00 in0.0 mm 0.00 in0.0 mm 0.00 in0.0 mm
04:30 PM 63.9°F17.7°C 41.5°F5.3°C 44% 6.9 mph ESE11.1 kmh ESE 13.6 mph21.9 kmh 29.80 in1009.1 mb 0.00 in0.0 mm 0.00 in0.0 mm 0.00 in0.0 mm
04:45 PM 64.0°F17.8°C 41.7°F5.4°C 44% 9.8 mph ESE15.8 kmh ESE 14.5 mph23.3 kmh 29.80 in1009.1 mb 0.00 in0.0 mm 0.00 in0.0 mm 0.00 in0.0 mm
05:00 PM 64.4°F18.0°C 40.8°F4.9°C 42% 8.3 mph E13.4 kmh E 15.2 mph24.5 kmh 29.80 in1009.1 mb 0.00 in0.0 mm 0.00 in0.0 mm 0.00 in0.0 mm
05:15 PM 64.8°F18.2°C 42.4°F5.8°C 44% 3.1 mph E5.0 kmh E 15.2 mph24.5 kmh 29.79 in1008.8 mb 0.00 in0.0 mm 0.00 in0.0 mm 0.00 in0.0 mm
05:30 PM 64.2°F17.9°C 41.9°F5.5°C 44% 7.6 mph E12.2 kmh E 14.5 mph23.3 kmh 29.78 in1008.5 mb 0.00 in0.0 mm 0.00 in0.0 mm 0.00 in0.0 mm
05:45 PM 63.7°F17.6°C 41.4°F5.2°C 44% 7.6 mph E12.2 kmh E 11.4 mph18.3 kmh 29.79 in1008.8 mb 0.00 in0.0 mm 0.00 in0.0 mm 0.00 in0.0 mm
06:00 PM 63.9°F17.7°C 42.7°F5.9°C 46% 3.8 mph E6.1 kmh E 12.1 mph19.5 kmh 29.79 in1008.8 mb 0.00 in0.0 mm 0.00 in0.0 mm 0.00 in0.0 mm
06:15 PM 64.0°F17.8°C 45.0°F7.2°C 50% 3.1 mph E5.0 kmh E 9.2 mph14.8 kmh 29.78 in1008.5 mb 0.00 in0.0 mm 0.00 in0.0 mm 0.00 in0.0 mm
06:30 PM 61.9°F16.6°C 44.6°F7.0°C 53% 6.9 mph E11.1 kmh E 9.2 mph14.8 kmh 29.78 in1008.5 mb 0.00 in0.0 mm 0.00 in0.0 mm 0.00 in0.0 mm
06:45 PM 63.3°F17.4°C 41.6°F5.3°C 45% 9.2 mph E14.8 kmh E 13.6 mph21.9 kmh 29.78 in1008.5 mb 0.00 in0.0 mm 0.00 in0.0 mm 0.00 in0.0 mm
07:00 PM 63.1°F17.3°C 46.2°F7.9°C 54% 1.6 mph E2.6 kmh E 7.6 mph12.2 kmh 29.78 in1008.5 mb 0.00 in0.0 mm 0.00 in0.0 mm 0.00 in0.0 mm
07:15 PM 63.5°F17.5°C 41.8°F5.4°C 45% 9.8 mph SE15.8 kmh SE 14.5 mph23.3 kmh 29.78 in1008.5 mb 0.00 in0.0 mm 0.00 in0.0 mm 0.00 in0.0 mm
07:30 PM 62.6°F17.0°C 41.0°F5.0°C 45% 7.6 mph SE12.2 kmh SE 13.0 mph20.9 kmh 29.78 in1008.5 mb 0.00 in0.0 mm 0.00 in0.0 mm 0.00 in0.0 mm
07:45 PM 61.0°F16.1°C 40.6°F4.8°C 47% 6.0 mph SE9.7 kmh SE 10.7 mph17.2 kmh 29.78 in1008.5 mb 0.00 in0.0 mm 0.00 in0.0 mm 0.00 in0.0 mm
08:00 PM 59.5°F15.3°C 40.9°F4.9°C 50% 6.0 mph SE9.7 kmh SE 11.4 mph18.3 kmh 29.79 in1008.8 mb 0.00 in0.0 mm 0.00 in0.0 mm 0.00 in0.0 mm
08:15 PM 57.9°F14.4°C 41.4°F5.2°C 54% 4.5 mph SE7.2 kmh SE 11.4 mph18.3 kmh 29.80 in1009.1 mb 0.00 in0.0 mm 0.00 in0.0 mm 0.00 in0.0 mm
08:30 PM 56.8°F13.8°C 41.8°F5.4°C 57% 3.8 mph SE6.1 kmh SE 9.2 mph14.8 kmh 29.80 in1009.1 mb 0.00 in0.0 mm 0.00 in0.0 mm 0.00 in0.0 mm
08:45 PM 55.9°F13.3°C 41.8°F5.4°C 59% 5.4 mph SE8.7 kmh SE 7.6 mph12.2 kmh 29.80 in1009.1 mb 0.00 in0.0 mm 0.00 in0.0 mm 0.00 in0.0 mm
09:00 PM 55.2°F12.9°C 42.0°F5.6°C 61% 6.9 mph SE11.1 kmh SE 9.8 mph15.8 kmh 29.80 in1009.1 mb 0.00 in0.0 mm 0.00 in0.0 mm 0.00 in0.0 mm
09:15 PM 54.7°F12.6°C 41.5°F5.3°C 61% 9.8 mph SE15.8 kmh SE 15.2 mph24.5 kmh 29.80 in1009.1 mb 0.00 in0.0 mm 0.00 in0.0 mm 0.00 in0.0 mm
09:30 PM 54.3°F12.4°C 41.2°F5.1°C 61% 7.6 mph SE12.2 kmh SE 12.1 mph19.5 kmh 29.81 in1009.5 mb 0.00 in0.0 mm 0.00 in0.0 mm 0.00 in0.0 mm
09:45 PM 54.1°F12.3°C 40.6°F4.8°C 60% 9.2 mph SE14.8 kmh SE 14.5 mph23.3 kmh 29.81 in1009.5 mb 0.00 in0.0 mm 0.00 in0.0 mm 0.00 in0.0 mm
10:00 PM 53.8°F12.1°C 40.2°F4.6°C 60% 8.3 mph SE13.4 kmh SE 13.0 mph20.9 kmh 29.81 in1009.5 mb 0.00 in0.0 mm 0.00 in0.0 mm 0.00 in0.0 mm
10:15 PM 53.6°F12.0°C 40.1°F4.5°C 60% 8.3 mph SE13.4 kmh SE 16.8 mph27.0 kmh 29.81 in1009.5 mb 0.00 in0.0 mm 0.00 in0.0 mm 0.00 in0.0 mm
10:30 PM 52.5°F11.4°C 43.4°F6.3°C 71% 1.6 mph ESE2.6 kmh ESE 13.0 mph20.9 kmh 29.81 in1009.5 mb 0.00 in0.0 mm 0.00 in0.0 mm 0.00 in0.0 mm
10:45 PM 50.9°F10.5°C 44.3°F6.8°C 78% 3.8 mph E6.1 kmh E 6.9 mph11.1 kmh 29.82 in1009.8 mb 0.00 in0.0 mm 0.00 in0.0 mm 0.00 in0.0 mm
11:00 PM 50.5°F10.3°C 43.6°F6.4°C 77% 5.4 mph E8.7 kmh E 9.2 mph14.8 kmh 29.82 in1009.8 mb 0.00 in0.0 mm 0.00 in0.0 mm 0.00 in0.0 mm
11:15 PM 50.4°F10.2°C 44.1°F6.7°C 79% 2.2 mph ESE3.5 kmh ESE 7.6 mph12.2 kmh 29.82 in1009.8 mb 0.00 in0.0 mm 0.00 in0.0 mm 0.00 in0.0 mm
11:30 PM 50.0°F10.0°C 44.7°F7.1°C 82% 3.1 mph E5.0 kmh E 6.0 mph9.7 kmh 29.81 in1009.5 mb 0.00 in0.0 mm 0.00 in0.0 mm 0.00 in0.0 mm
11:45 PM 49.8°F9.9°C 43.9°F6.6°C 80% 3.1 mph E5.0 kmh E 6.0 mph9.7 kmh 29.81 in1009.5 mb 0.00 in0.0 mm 0.00 in0.0 mm 0.00 in0.0 mm